Time;durP1;ratioP1;P1;durP2;ratioP2;P2;SDS_P1;SDS_P2;PMS_P1;PMS_P2;Temp;Humidity;BMP_temperature;BMP_pressure;BME280_temperature;BME280_humidity;BME280_pressure;Samples;Min_cycle;Max_cycle;Signal;HPM_P1;HPM_P2
2023/02/15 00:01:36;;;;;;;18.93;14.10;;;9.20;94.40;;;;;;5051780;28;20408;-67
2023/02/15 00:04:03;;;;;;;20.07;14.43;;;9.20;94.80;;;;;;5050481;28;20823;-67
2023/02/15 00:06:29;;;;;;;19.73;15.27;;;9.20;94.80;;;;;;5051593;28;20458;-67
2023/02/15 00:08:55;;;;;;;18.70;14.93;;;9.20;94.60;;;;;;5050865;28;20481;-76
2023/02/15 00:11:39;;;;;;;20.00;14.37;;;9.20;94.40;;;;;;5050634;28;20940;-67
2023/02/15 00:14:09;;;;;;;17.00;14.33;;;9.20;94.30;;;;;;5050859;28;20400;-67
2023/02/15 00:16:35;;;;;;;19.60;15.00;;;9.10;94.30;;;;;;5051997;28;20486;-67
2023/02/15 00:19:02;;;;;;;20.60;13.53;;;9.00;94.70;;;;;;5067326;28;20463;-67
2023/02/15 00:21:32;;;;;;;23.43;14.73;;;9.00;94.70;;;;;;5069816;28;20435;-67
2023/02/15 00:24:00;;;;;;;19.17;13.70;;;9.00;95.10;;;;;;5072103;28;20432;-67
2023/02/15 00:26:26;;;;;;;19.33;14.60;;;9.00;94.80;;;;;;5073865;28;20624;-67
2023/02/15 00:28:53;;;;;;;19.53;14.00;;;9.00;94.80;;;;;;5075443;28;20459;-67
2023/02/15 00:31:19;;;;;;;18.97;15.17;;;8.90;95.30;;;;;;5075495;28;20426;-67
2023/02/15 00:33:45;;;;;;;20.53;14.70;;;8.90;94.70;;;;;;5074228;28;20944;-67
2023/02/15 00:36:11;;;;;;;18.47;14.67;;;8.90;95.00;;;;;;5074755;28;20418;-67
2023/02/15 00:38:37;;;;;;;23.30;14.90;;;8.80;95.10;;;;;;5075313;28;20216;-70
2023/02/15 00:41:04;;;;;;;19.60;15.50;;;8.90;95.30;;;;;;5066272;28;20486;-68
2023/02/15 00:43:32;;;;;;;17.93;15.50;;;8.80;95.30;;;;;;5047058;28;20441;-67
2023/02/15 00:45:58;;;;;;;20.97;13.50;;;8.80;95.20;;;;;;5034093;28;20451;-77
2023/02/15 00:48:24;;;;;;;18.23;14.00;;;8.80;95.60;;;;;;5022484;28;20428;-67
2023/02/15 00:50:52;;;;;;;23.67;15.27;;;8.70;95.20;;;;;;5043783;28;20444;-67
2023/02/15 00:53:18;;;;;;;19.57;14.70;;;8.70;95.40;;;;;;5021358;28;20559;-67
2023/02/15 00:55:44;;;;;;;20.20;14.60;;;8.60;95.30;;;;;;5045643;28;20956;-67
2023/02/15 00:58:10;;;;;;;15.97;13.63;;;8.60;95.40;;;;;;5033780;28;20405;-67
2023/02/15 01:00:37;;;;;;;20.20;14.57;;;8.50;95.70;;;;;;5034499;28;20257;-67
2023/02/15 01:03:04;;;;;;;20.20;14.23;;;8.50;95.60;;;;;;5034011;28;20408;-67
2023/02/15 01:05:30;;;;;;;19.20;14.90;;;8.40;95.70;;;;;;5034482;28;20567;-67
2023/02/15 01:07:56;;;;;;;23.30;15.20;;;8.50;95.70;;;;;;5041994;28;20435;-76
2023/02/15 01:10:23;;;;;;;21.43;16.27;;;8.40;95.90;;;;;;5053979;28;20424;-67
2023/02/15 01:12:50;;;;;;;20.03;14.90;;;8.30;96.10;;;;;;5017644;28;20859;-67
2023/02/15 01:15:16;;;;;;;18.73;14.70;;;8.30;96.20;;;;;;5033288;28;20583;-67
2023/02/15 01:17:42;;;;;;;22.23;16.07;;;8.30;96.60;;;;;;5051746;28;20518;-67
2023/02/15 01:20:08;;;;;;;20.00;15.30;;;8.30;96.30;;;;;;5048527;28;20206;-67
2023/02/15 01:22:33;;;;;;;24.60;16.67;;;8.20;96.40;;;;;;5042188;28;20442;-74
2023/02/15 01:24:59;;;;;;;23.47;15.60;;;8.30;96.70;;;;;;5032374;28;20433;-67
2023/02/15 01:27:25;;;;;;;23.10;15.83;;;8.30;96.80;;;;;;5034471;28;20193;-67
2023/02/15 01:29:50;;;;;;;21.60;16.40;;;8.40;96.50;;;;;;5034389;28;20608;-67
2023/02/15 01:32:16;;;;;;;23.33;16.10;;;8.30;96.30;;;;;;5015961;28;20378;-67
2023/02/15 01:34:42;;;;;;;21.73;16.10;;;8.30;96.00;;;;;;5032302;28;20182;-67
2023/02/15 01:37:07;;;;;;;20.40;15.00;;;8.30;95.90;;;;;;5015491;28;20669;-67
2023/02/15 01:39:33;;;;;;;19.90;15.50;;;8.20;96.20;;;;;;5049385;28;20261;-67
2023/02/15 01:41:59;;;;;;;23.57;16.90;;;8.20;96.00;;;;;;5053576;28;20221;-75
2023/02/15 01:44:48;;;;;;;22.70;15.50;;;8.20;96.30;;;;;;5053301;28;20188;-67
2023/02/15 01:47:35;;;;;;;21.33;15.37;;;8.10;96.60;;;;;;5052569;28;20185;-67
2023/02/15 01:50:13;;;;;;;19.00;15.47;;;8.10;96.70;;;;;;5046567;28;20448;-77
2023/02/15 01:52:48;;;;;;;20.83;14.90;;;8.00;97.00;;;;;;5015441;28;20467;-67
2023/02/15 01:55:15;;;;;;;21.90;16.00;;;8.00;97.30;;;;;;5016087;28;20482;-67
2023/02/15 01:57:41;;;;;;;23.30;16.90;;;8.00;97.60;;;;;;5049297;28;20435;-76
2023/02/15 02:00:08;;;;;;;23.80;16.97;;;7.90;96.90;;;;;;5032369;28;20883;-67
2023/02/15 02:02:34;;;;;;;24.70;18.73;;;7.90;97.10;;;;;;5033360;28;20729;-67
2023/02/15 02:05:06;;;;;;;24.17;17.77;;;7.90;98.10;;;;;;5015434;28;20777;-76
2023/02/15 02:07:36;;;;;;;26.20;18.50;;;7.90;97.50;;;;;;5033292;28;20412;-67
2023/02/15 02:10:03;;;;;;;28.63;18.93;;;7.80;97.70;;;;;;5033069;28;20428;-77
2023/02/15 02:12:29;;;;;;;23.83;17.03;;;7.90;97.70;;;;;;5033230;28;20418;-67
2023/02/15 02:14:56;;;;;;;24.07;16.60;;;7.90;98.00;;;;;;5033403;28;20499;-68
2023/02/15 02:17:49;;;;;;;26.97;18.10;;;7.90;97.90;;;;;;5048743;28;20435;-67
2023/02/15 02:20:26;;;;;;;23.90;17.00;;;7.80;97.90;;;;;;5042561;28;20475;-67
2023/02/15 02:23:08;;;;;;;22.80;17.77;;;7.80;97.60;;;;;;5035183;28;20440;-67
2023/02/15 02:26:15;;;;;;;26.67;18.00;;;7.80;98.10;;;;;;5042953;28;20775;-67
2023/02/15 02:28:58;;;;;;;24.63;17.67;;;7.70;97.80;;;;;;4997737;28;20496;-67
2023/02/15 02:31:50;;;;;;;23.63;16.63;;;7.70;98.40;;;;;;5034175;28;21286;-67
2023/02/15 02:34:19;;;;;;;22.90;16.10;;;7.80;98.30;;;;;;5038670;28;20487;-67
2023/02/15 02:36:50;;;;;;;25.70;17.80;;;7.80;98.50;;;;;;5032786;28;20427;-69
2023/02/15 02:39:30;;;;;;;28.20;18.40;;;7.70;98.50;;;;;;5032129;28;20962;-67
2023/02/15 02:42:10;;;;;;;27.00;19.80;;;7.80;98.90;;;;;;5049071;28;20475;-67
2023/02/15 02:44:47;;;;;;;24.23;17.47;;;7.80;99.10;;;;;;5016140;28;20424;-67
2023/02/15 02:47:17;;;;;;;23.73;16.63;;;7.80;98.10;;;;;;5031788;28;20404;-67
2023/02/15 02:49:43;;;;;;;22.40;17.10;;;7.70;97.20;;;;;;5018622;28;20439;-67
2023/02/15 02:52:42;;;;;;;25.03;18.53;;;7.70;97.70;;;;;;5051466;28;20903;-68
2023/02/15 02:55:38;;;;;;;24.90;17.30;;;7.70;98.60;;;;;;5051253;28;20920;-68
2023/02/15 02:58:23;;;;;;;22.40;15.70;;;7.70;98.90;;;;;;5031951;28;20487;-76
2023/02/15 03:00:56;;;;;;;24.40;17.77;;;7.60;98.20;;;;;;5031937;28;20491;-68
2023/02/15 03:03:32;;;;;;;23.33;17.60;;;7.60;98.30;;;;;;5035679;28;20429;-67
2023/02/15 03:06:02;;;;;;;26.97;17.67;;;7.50;98.60;;;;;;5034563;28;20423;-67
2023/02/15 03:08:42;;;;;;;28.17;18.27;;;7.60;98.90;;;;;;5051314;28;20399;-67
2023/02/15 03:11:10;;;;;;;22.07;16.80;;;7.50;98.50;;;;;;5051460;28;20411;-68
2023/02/15 03:13:37;;;;;;;23.60;16.70;;;7.50;98.60;;;;;;5051288;28;20426;-67
2023/02/15 03:19:06;;;;;;;24.50;17.43;;;7.40;98.40;;;;;;5051349;28;20820;-67
2023/02/15 03:21:41;;;;;;;26.00;17.30;;;7.40;99.10;;;;;;5043580;28;20434;-68
2023/02/15 03:24:14;;;;;;;23.37;16.83;;;7.50;99.50;;;;;;5031437;28;20402;-76
2023/02/15 03:26:45;;;;;;;23.30;17.63;;;7.50;99.20;;;;;;5032326;28;20412;-67
2023/02/15 03:29:12;;;;;;;25.43;17.30;;;7.40;98.60;;;;;;5041191;28;20985;-67
2023/02/15 03:31:43;;;;;;;23.07;16.63;;;7.40;98.20;;;;;;5051998;28;20501;-67
2023/02/15 03:34:12;;;;;;;24.37;17.03;;;7.30;98.60;;;;;;5033211;28;20413;-68
2023/02/15 03:37:02;;;;;;;21.40;15.87;;;7.30;98.70;;;;;;5034062;28;20755;-67
2023/02/15 03:43:24;;;;;;;23.73;16.23;;;7.20;99.20;;;;;;5050564;28;20901;-67
2023/02/15 03:45:56;;;;;;;20.70;16.67;;;7.20;99.00;;;;;;5050691;28;20429;-67
2023/02/15 03:48:29;;;;;;;22.37;17.00;;;7.10;98.80;;;;;;5051096;28;20426;-67
2023/02/15 03:53:48;;;;;;;20.40;15.73;;;7.10;99.70;;;;;;5050527;28;20442;-67
2023/02/15 03:56:15;;;;;;;23.77;17.40;;;7.10;99.70;;;;;;5050979;28;20482;-67
2023/02/15 04:04:24;;;;;;;25.07;17.57;;;7.20;99.80;;;;;;5053751;28;20925;-67
2023/02/15 04:06:49;;;;;;;23.67;16.87;;;7.10;99.50;;;;;;5054284;28;20764;-67
2023/02/15 04:12:00;;;;;;;24.80;17.07;;;7.00;99.40;;;;;;5035691;28;20493;-67
2023/02/15 04:17:10;;;;;;;24.63;17.50;;;7.00;99.90;;;;;;5034744;28;20399;-76
2023/02/15 04:25:14;;;;;;;21.57;15.60;;;6.90;99.90;;;;;;5055362;28;20409;-68
2023/02/15 04:27:47;;;;;;;23.77;17.37;;;6.90;99.90;;;;;;5054761;28;20405;-70
2023/02/15 04:30:14;;;;;;;23.30;16.60;;;6.90;99.90;;;;;;5034524;28;20442;-68
2023/02/15 04:32:42;;;;;;;21.17;15.70;;;6.90;99.90;;;;;;5035591;28;20470;-67
2023/02/15 04:35:09;;;;;;;20.63;15.67;;;6.90;99.90;;;;;;5037590;28;20426;-79
2023/02/15 04:37:40;;;;;;;23.13;18.10;;;6.90;99.90;;;;;;5054654;28;20502;-69
2023/02/15 04:40:09;;;;;;;23.90;17.80;;;7.00;99.90;;;;;;5055353;28;20565;-69
2023/02/15 04:42:35;;;;;;;22.77;16.70;;;6.90;99.90;;;;;;5036077;28;20439;-70
2023/02/15 04:45:01;;;;;;;23.53;15.90;;;6.90;99.90;;;;;;5054542;28;20475;-70
2023/02/15 04:47:27;;;;;;;24.17;17.77;;;6.80;99.90;;;;;;5054061;28;20327;-70
2023/02/15 04:49:52;;;;;;;25.87;16.43;;;6.80;99.90;;;;;;5052945;28;20537;-70
2023/02/15 04:52:18;;;;;;;22.57;17.20;;;6.80;99.90;;;;;;5038973;28;20229;-70
2023/02/15 04:54:44;;;;;;;21.30;16.80;;;6.70;99.90;;;;;;5017557;28;20215;-70
2023/02/15 04:57:11;;;;;;;24.53;17.90;;;6.70;99.90;;;;;;5052893;28;20593;-70
2023/02/15 04:59:36;;;;;;;21.07;16.93;;;6.70;99.90;;;;;;5041859;28;20880;-71
2023/02/15 05:02:02;;;;;;;26.53;17.03;;;6.70;99.90;;;;;;5034334;28;20513;-70
2023/02/15 05:04:31;;;;;;;21.00;17.03;;;6.70;99.90;;;;;;4999714;28;20206;-70
2023/02/15 05:06:56;;;;;;;23.90;16.80;;;6.70;99.90;;;;;;5034479;28;20419;-70
2023/02/15 05:09:22;;;;;;;22.63;19.03;;;6.60;99.90;;;;;;5014680;28;20497;-70
2023/02/15 05:11:48;;;;;;;23.70;17.07;;;6.60;99.90;;;;;;5034164;28;20184;-70
2023/02/15 05:14:14;;;;;;;24.87;19.40;;;6.60;99.90;;;;;;5033643;28;20415;-79
2023/02/15 05:16:39;;;;;;;24.13;17.63;;;6.60;99.90;;;;;;5034304;28;20179;-71
2023/02/15 05:19:05;;;;;;;27.43;18.13;;;6.60;99.90;;;;;;5016193;28;20208;-71
2023/02/15 05:21:34;;;;;;;25.47;19.77;;;6.60;99.90;;;;;;5035954;28;20187;-71
2023/02/15 05:24:00;;;;;;;23.97;18.20;;;6.60;99.90;;;;;;5054197;28;20784;-71
2023/02/15 05:29:10;;;;;;;24.80;18.97;;;6.60;99.90;;;;;;5054193;28;20259;-71
2023/02/15 05:31:36;;;;;;;27.67;18.60;;;6.60;99.90;;;;;;5053613;28;20436;-71
2023/02/15 05:34:02;;;;;;;24.97;19.63;;;6.60;99.90;;;;;;5053610;28;20397;-71
2023/02/15 05:36:28;;;;;;;31.63;20.17;;;6.60;99.90;;;;;;5042284;28;20913;-71
2023/02/15 05:38:54;;;;;;;27.13;19.67;;;6.60;99.90;;;;;;5037137;28;20200;-71
2023/02/15 05:41:20;;;;;;;28.80;19.30;;;6.60;99.90;;;;;;5051625;28;20481;-71
2023/02/15 05:43:46;;;;;;;24.43;18.30;;;6.60;99.90;;;;;;5053528;28;20772;-71
2023/02/15 05:46:12;;;;;;;26.47;18.27;;;6.70;99.90;;;;;;5052284;28;20176;-76
2023/02/15 05:48:38;;;;;;;29.27;20.20;;;6.60;99.90;;;;;;5017922;28;20178;-71
2023/02/15 05:51:12;;;;;;;25.77;18.97;;;6.60;99.90;;;;;;5033714;28;20922;-71
2023/02/15 05:53:39;;;;;;;30.53;21.47;;;6.60;99.90;;;;;;5037209;28;20179;-71
2023/02/15 05:56:07;;;;;;;29.85;21.45;;;6.60;99.90;;;;;;5053566;28;20417;-71
2023/02/15 05:58:35;;;;;;;27.98;19.92;;;6.60;99.90;;;;;;5052533;28;20253;-71
2023/02/15 06:01:17;;;;;;;28.33;19.87;;;6.60;99.90;;;;;;5045892;28;20242;-71
2023/02/15 06:03:43;;;;;;;29.40;18.87;;;6.60;99.90;;;;;;5023595;28;20493;-71
2023/02/15 06:06:09;;;;;;;23.50;18.47;;;6.60;99.90;;;;;;5033160;28;20923;-71
2023/02/15 06:08:36;;;;;;;28.03;20.47;;;6.60;99.90;;;;;;5048149;28;20445;-71
2023/02/15 06:11:03;;;;;;;25.10;17.90;;;6.60;99.90;;;;;;5051180;28;20278;-70
2023/02/15 06:13:29;;;;;;;29.67;19.60;;;6.50;99.90;;;;;;5052300;28;20397;-70
2023/02/15 06:15:54;;;;;;;24.20;18.50;;;6.50;99.90;;;;;;5053072;28;20454;-71
2023/02/15 06:18:20;;;;;;;28.03;18.03;;;6.50;99.90;;;;;;5042766;28;20190;-71
2023/02/15 06:20:46;;;;;;;26.20;18.60;;;6.40;99.90;;;;;;5048641;28;20207;-70
2023/02/15 06:23:12;;;;;;;22.67;17.23;;;6.40;99.90;;;;;;5048030;28;20415;-71
2023/02/15 06:25:38;;;;;;;29.60;19.60;;;6.40;99.90;;;;;;5039634;28;20422;-71
2023/02/15 06:28:04;;;;;;;27.00;19.07;;;6.40;99.90;;;;;;5052905;28;20426;-71
2023/02/15 06:30:29;;;;;;;25.70;19.30;;;6.40;99.90;;;;;;5052707;28;20525;-71
2023/02/15 06:32:55;;;;;;;31.63;19.00;;;6.40;99.90;;;;;;5053445;28;20210;-70
2023/02/15 06:35:21;;;;;;;30.90;21.40;;;6.40;99.90;;;;;;5032826;28;20174;-70
2023/02/15 06:37:47;;;;;;;22.23;17.90;;;6.40;99.90;;;;;;5041429;28;20433;-71
2023/02/15 06:40:13;;;;;;;26.67;18.57;;;6.40;99.90;;;;;;5051570;28;20485;-71
2023/02/15 06:42:39;;;;;;;31.60;20.20;;;6.40;99.90;;;;;;5015696;28;20450;-72
2023/02/15 06:45:05;;;;;;;31.80;20.60;;;6.40;99.90;;;;;;5046175;28;20518;-72
2023/02/15 06:47:31;;;;;;;25.50;19.27;;;6.40;99.90;;;;;;5049939;28;20187;-69
2023/02/15 06:49:57;;;;;;;27.10;18.90;;;6.40;99.90;;;;;;5042596;28;20443;-69
2023/02/15 06:52:23;;;;;;;30.87;22.33;;;6.40;99.90;;;;;;5032318;28;20167;-70
2023/02/15 06:54:49;;;;;;;29.75;21.35;;;6.40;99.90;;;;;;5051185;28;20980;-69
2023/02/15 06:57:14;;;;;;;28.17;20.97;;;6.40;99.90;;;;;;5052685;28;20263;-70
2023/02/15 06:59:40;;;;;;;36.17;21.77;;;6.40;99.90;;;;;;5052061;28;20207;-69
2023/02/15 07:02:06;;;;;;;35.83;24.83;;;6.40;99.90;;;;;;5039261;28;20435;-69
2023/02/15 07:04:31;;;;;;;36.03;24.13;;;6.50;99.90;;;;;;5052137;28;20175;-68
2023/02/15 07:06:57;;;;;;;36.63;25.03;;;6.50;99.90;;;;;;5050442;28;20261;-72
2023/02/15 07:09:23;;;;;;;33.57;23.40;;;6.50;99.90;;;;;;5031804;28;20211;-69
2023/02/15 07:14:33;;;;;;;33.43;25.00;;;6.50;99.90;;;;;;5044194;28;20183;-69
2023/02/15 07:16:58;;;;;;;29.73;22.23;;;6.50;99.90;;;;;;5032008;28;20450;-69
2023/02/15 07:19:24;;;;;;;31.07;22.10;;;6.50;99.90;;;;;;5048929;28;20239;-70
2023/02/15 07:21:50;;;;;;;34.23;22.27;;;6.60;99.90;;;;;;5049690;28;20190;-71
2023/02/15 07:24:15;;;;;;;31.00;21.70;;;6.60;99.90;;;;;;5036620;28;20184;-72
2023/02/15 07:26:41;;;;;;;29.53;22.07;;;6.50;99.90;;;;;;5033494;28;20179;-70
2023/02/15 07:29:07;;;;;;;33.63;23.10;;;6.50;99.90;;;;;;5032598;28;20620;-69
2023/02/15 07:31:32;;;;;;;28.67;22.27;;;6.60;99.90;;;;;;5015388;28;20180;-69
2023/02/15 07:33:58;;;;;;;33.10;22.90;;;6.50;99.90;;;;;;5034615;28;20573;-69
2023/02/15 07:36:24;;;;;;;33.07;23.30;;;6.60;99.90;;;;;;5035989;28;20215;-69
2023/02/15 07:38:49;;;;;;;34.37;22.60;;;6.60;99.90;;;;;;5055570;28;20208;-70
2023/02/15 07:41:16;;;;;;;29.70;20.67;;;6.60;99.90;;;;;;5041595;28;20699;-69
2023/02/15 07:43:44;;;;;;;34.67;23.63;;;6.70;99.90;;;;;;5055368;28;20263;-71
2023/02/15 07:46:12;;;;;;;34.13;23.70;;;6.70;99.90;;;;;;5054572;28;20432;-70
2023/02/15 07:48:39;;;;;;;33.93;23.30;;;6.70;99.90;;;;;;5054665;28;20496;-72
2023/02/15 07:51:07;;;;;;;35.70;25.10;;;6.80;99.90;;;;;;5056518;28;20450;-68
2023/02/15 07:53:34;;;;;;;34.40;25.37;;;6.90;99.90;;;;;;5055561;28;20425;-70
2023/02/15 07:56:05;;;;;;;38.43;24.00;;;7.10;99.90;;;;;;5056054;28;20419;-70
2023/02/15 07:58:50;;;;;;;39.07;29.40;;;7.90;99.90;;;;;;5055012;28;20400;-70
2023/02/15 08:01:26;;;;;;;32.80;24.33;;;8.70;99.90;;;;;;5038224;28;20446;-70
2023/02/15 08:03:54;;;;;;;29.57;25.27;;;9.50;99.90;;;;;;5056073;28;20450;-70
2023/02/15 08:06:21;;;;;;;34.20;25.90;;;10.20;99.90;;;;;;5054983;28;20417;-70
2023/02/15 08:08:47;;;;;;;33.23;25.30;;;10.70;99.90;;;;;;5052742;28;20860;-70
2023/02/15 08:11:25;;;;;;;38.20;28.60;;;11.20;99.90;;;;;;5055779;28;20449;-70
2023/02/15 08:14:06;;;;;;;37.57;24.57;;;11.60;99.60;;;;;;5055957;28;20187;-70
2023/02/15 08:16:45;;;;;;;37.80;25.40;;;12.00;97.50;;;;;;5053256;28;20396;-73
2023/02/15 08:19:18;;;;;;;37.37;25.47;;;12.40;95.90;;;;;;5045136;28;20462;-70
2023/02/15 08:21:46;;;;;;;31.13;25.00;;;12.70;95.10;;;;;;5035629;28;20436;-70
2023/02/15 08:24:17;;;;;;;32.87;25.40;;;13.00;93.90;;;;;;5055658;28;20478;-70
2023/02/15 08:26:44;;;;;;;29.00;23.60;;;13.20;93.60;;;;;;5048845;28;20488;-70
2023/02/15 08:29:10;;;;;;;31.83;24.20;;;13.40;93.40;;;;;;5055499;28;20423;-70
2023/02/15 08:31:37;;;;;;;31.30;24.10;;;13.60;92.20;;;;;;5054847;28;20422;-70
2023/02/15 08:34:04;;;;;;;32.00;24.60;;;13.90;91.60;;;;;;5055197;28;20403;-71
2023/02/15 08:36:31;;;;;;;30.97;23.03;;;14.00;91.00;;;;;;5050446;28;20933;-70
2023/02/15 08:38:59;;;;;;;28.37;22.73;;;14.10;90.30;;;;;;5051111;28;20486;-73
2023/02/15 08:41:30;;;;;;;356.27;282.60;;;14.30;89.40;;;;;;5054340;28;20562;-70
2023/02/15 08:43:58;;;;;;;287.97;168.50;;;14.40;90.30;;;;;;5037005;28;20530;-70
2023/02/15 08:46:26;;;;;;;247.73;143.60;;;14.50;88.40;;;;;;5054592;28;20482;-70
2023/02/15 08:48:52;;;;;;;52.70;35.20;;;14.70;87.60;;;;;;5055212;28;20404;-67
2023/02/15 08:51:29;;;;;;;32.70;25.93;;;14.80;87.00;;;;;;5054815;28;20414;-70
2023/02/15 08:53:58;;;;;;;27.73;22.00;;;14.70;83.10;;;;;;5055068;28;20725;-67
2023/02/15 08:56:27;;;;;;;24.30;20.13;;;14.40;79.60;;;;;;5035709;28;20432;-70
2023/02/15 08:58:54;;;;;;;660.23;400.20;;;14.10;80.10;;;;;;5036951;28;20447;-67
2023/02/15 09:01:24;;;;;;;551.73;357.70;;;13.70;82.60;;;;;;5055153;28;20427;-67
2023/02/15 09:03:54;;;;;;;121.97;82.13;;;13.30;84.70;;;;;;5054941;28;20891;-67
2023/02/15 09:06:22;;;;;;;37.33;28.53;;;13.10;85.60;;;;;;5054687;28;20407;-71
2023/02/15 09:08:48;;;;;;;26.83;21.60;;;12.80;86.20;;;;;;5037967;28;20431;-67
2023/02/15 09:11:23;;;;;;;29.00;22.80;;;12.60;87.70;;;;;;5023944;28;20497;-67
2023/02/15 09:14:13;;;;;;;24.47;20.63;;;12.40;87.00;;;;;;5049213;28;20423;-75
2023/02/15 09:16:40;;;;;;;26.00;21.23;;;12.20;90.00;;;;;;5037878;28;20428;-68
2023/02/15 09:19:07;;;;;;;30.60;19.73;;;12.20;90.10;;;;;;5033923;28;20821;-67
2023/02/15 09:21:38;;;;;;;28.37;19.30;;;12.10;90.60;;;;;;5046747;28;20463;-68
2023/02/15 09:24:09;;;;;;;23.63;19.27;;;12.10;90.50;;;;;;5054704;28;20396;-68
2023/02/15 09:26:37;;;;;;;21.17;18.27;;;12.10;90.60;;;;;;5053975;28;20924;-67
2023/02/15 09:29:03;;;;;;;23.17;17.73;;;12.20;88.40;;;;;;5032403;28;20913;-67
2023/02/15 09:31:38;;;;;;;24.47;18.40;;;12.30;87.10;;;;;;5018941;28;20847;-67
2023/02/15 09:34:04;;;;;;;22.20;17.03;;;12.40;88.90;;;;;;5043212;28;20414;-67
2023/02/15 09:36:33;;;;;;;22.10;17.33;;;12.60;90.00;;;;;;5050503;28;20763;-68
2023/02/15 09:39:03;;;;;;;24.17;17.83;;;12.70;86.50;;;;;;5041048;28;20299;-68
2023/02/15 09:42:06;;;;;;;24.00;17.57;;;12.90;85.30;;;;;;5041811;28;20467;-67
2023/02/15 09:45:13;;;;;;;21.77;19.37;;;13.10;87.40;;;;;;5041205;28;20921;-67
2023/02/15 09:48:00;;;;;;;19.30;16.77;;;13.30;85.40;;;;;;5024679;28;20920;-68
2023/02/15 09:51:03;;;;;;;22.17;16.37;;;13.60;83.80;;;;;;5041764;28;20419;-82
2023/02/15 09:53:47;;;;;;;19.60;17.30;;;13.90;82.40;;;;;;5044976;28;20420;-80
2023/02/15 09:56:37;;;;;;;20.73;17.03;;;14.20;84.10;;;;;;5042194;28;21001;-67
2023/02/15 09:59:24;;;;;;;20.10;15.33;;;14.40;84.70;;;;;;5042197;28;21014;-67
2023/02/15 10:01:56;;;;;;;21.13;18.53;;;14.60;85.40;;;;;;5041218;28;20753;-67
2023/02/15 10:04:46;;;;;;;20.30;15.90;;;14.90;82.40;;;;;;5041344;28;20410;-68
2023/02/15 10:07:34;;;;;;;19.43;17.37;;;15.10;80.10;;;;;;5043557;28;20407;-67
2023/02/15 10:10:09;;;;;;;18.83;16.17;;;15.40;79.80;;;;;;5041746;28;20447;-67
2023/02/15 10:12:52;;;;;;;18.63;15.57;;;15.50;78.10;;;;;;5042707;28;20473;-68
2023/02/15 10:15:33;;;;;;;21.87;16.40;;;15.60;79.70;;;;;;5047071;28;20426;-67
2023/02/15 10:18:20;;;;;;;17.30;14.13;;;15.70;78.60;;;;;;5048975;28;20406;-67
2023/02/15 10:21:11;;;;;;;21.20;17.10;;;15.80;73.80;;;;;;5043096;28;20475;-67
2023/02/15 10:24:01;;;;;;;20.87;18.57;;;15.90;74.20;;;;;;5041882;28;20459;-68
2023/02/15 10:26:48;;;;;;;22.70;15.33;;;16.10;76.60;;;;;;5022689;28;20435;-71
2023/02/15 10:29:27;;;;;;;18.93;16.77;;;16.40;71.00;;;;;;5029030;28;20790;-69
2023/02/15 10:32:08;;;;;;;19.97;17.77;;;17.00;83.00;;;;;;5041489;28;20800;-70
2023/02/15 10:34:52;;;;;;;18.00;16.10;;;17.60;81.20;;;;;;5040695;28;20409;-70
2023/02/15 10:37:33;;;;;;;19.97;15.50;;;18.10;74.50;;;;;;5041140;28;20796;-70
2023/02/15 10:40:11;;;;;;;176.50;132.03;;;18.50;72.10;;;;;;5042247;28;20464;-70
2023/02/15 10:42:54;;;;;;;208.07;128.23;;;18.80;69.80;;;;;;5042883;28;20777;-70
2023/02/15 10:45:39;;;;;;;209.00;150.13;;;19.10;64.00;;;;;;5045114;28;20409;-70
2023/02/15 10:48:16;;;;;;;21.43;19.03;;;19.40;67.90;;;;;;5038051;28;20447;-70
2023/02/15 10:50:58;;;;;;;20.20;15.70;;;19.60;67.90;;;;;;5039823;28;20409;-70
2023/02/15 10:53:49;;;;;;;19.63;16.83;;;20.00;62.90;;;;;;5040399;28;20464;-70
2023/02/15 10:56:41;;;;;;;16.30;14.60;;;20.20;60.80;;;;;;5042379;28;20408;-71
2023/02/15 10:59:13;;;;;;;16.17;14.43;;;20.30;59.10;;;;;;5042312;28;20467;-70
2023/02/15 11:01:48;;;;;;;17.27;15.30;;;20.50;59.60;;;;;;5041430;28;21023;-70
2023/02/15 11:04:16;;;;;;;15.80;13.83;;;20.60;57.40;;;;;;5041801;28;20480;-69
2023/02/15 11:06:52;;;;;;;14.00;12.70;;;20.80;58.90;;;;;;5041613;28;20436;-72
2023/02/15 11:09:20;;;;;;;15.63;13.97;;;20.90;55.50;;;;;;5031773;28;20459;-72
2023/02/15 11:11:52;;;;;;;14.83;13.43;;;20.90;57.90;;;;;;5041794;28;20469;-71
2023/02/15 11:14:33;;;;;;;16.00;14.37;;;21.10;58.20;;;;;;5041989;28;20417;-70
2023/02/15 11:17:13;;;;;;;17.67;13.93;;;21.20;57.30;;;;;;5042147;28;20777;-71
2023/02/15 11:20:02;;;;;;;14.63;13.20;;;21.30;57.40;;;;;;5041719;28;20448;-69
2023/02/15 11:22:31;;;;;;;20.00;16.07;;;21.40;55.80;;;;;;5041937;28;20452;-70
2023/02/15 11:24:58;;;;;;;17.00;15.40;;;21.40;55.50;;;;;;5041140;28;20987;-70
2023/02/15 11:27:34;;;;;;;14.67;13.10;;;21.50;54.70;;;;;;5040962;28;20805;-70
2023/02/15 11:30:05;;;;;;;17.43;13.70;;;21.50;56.40;;;;;;5042163;28;20846;-71
2023/02/15 11:32:33;;;;;;;15.10;13.10;;;21.70;54.30;;;;;;5028988;28;20421;-70
2023/02/15 11:35:29;;;;;;;13.17;11.87;;;21.70;52.40;;;;;;5040042;28;20416;-70
2023/02/15 11:37:59;;;;;;;15.40;13.40;;;21.80;53.60;;;;;;5042687;28;20433;-70
2023/02/15 11:40:28;;;;;;;15.60;12.90;;;21.90;53.40;;;;;;5039666;28;20473;-70
2023/02/15 11:43:00;;;;;;;13.93;12.43;;;22.00;53.10;;;;;;5040503;28;20436;-70
2023/02/15 11:45:30;;;;;;;15.30;11.70;;;22.00;53.20;;;;;;5040011;28;20401;-70
2023/02/15 11:47:58;;;;;;;15.17;13.40;;;22.10;52.60;;;;;;5040403;28;20424;-69
2023/02/15 11:50:26;;;;;;;14.97;13.23;;;22.20;53.20;;;;;;5041522;28;20924;-70
2023/02/15 11:53:17;;;;;;;10.53;9.37;;;22.20;51.50;;;;;;5040216;28;20413;-69
2023/02/15 11:55:46;;;;;;;9.50;8.60;;;22.20;51.30;;;;;;5015144;28;20943;-71
2023/02/15 11:58:34;;;;;;;10.93;9.93;;;22.20;49.60;;;;;;5042620;28;20413;-72
2023/02/15 12:01:32;;;;;;;10.27;9.30;;;22.10;49.30;;;;;;5041946;28;20466;-72
2023/02/15 12:04:23;;;;;;;9.50;8.60;;;22.10;48.50;;;;;;5041188;28;20437;-71
2023/02/15 12:06:54;;;;;;;10.20;9.20;;;22.10;49.00;;;;;;5016990;28;20716;-71
2023/02/15 12:09:38;;;;;;;9.80;8.90;;;22.00;48.70;;;;;;5030552;28;20487;-73
2023/02/15 12:12:27;;;;;;;10.87;9.50;;;22.00;48.90;;;;;;5041482;28;20851;-71
2023/02/15 12:14:59;;;;;;;10.47;9.40;;;22.00;47.60;;;;;;5039885;28;20410;-72
2023/02/15 12:17:35;;;;;;;140.47;96.20;;;22.00;48.20;;;;;;5039501;28;20435;-71
2023/02/15 12:20:14;;;;;;;40.83;35.73;;;22.10;47.90;;;;;;5040026;28;20881;-72
2023/02/15 12:22:49;;;;;;;15.60;14.00;;;22.10;49.20;;;;;;5045085;28;20421;-73
2023/02/15 12:25:29;;;;;;;11.17;9.97;;;22.00;46.90;;;;;;5044965;28;20757;-71
2023/02/15 12:27:55;;;;;;;12.17;10.97;;;22.00;47.00;;;;;;5044748;28;20417;-70
2023/02/15 12:30:34;;;;;;;12.03;10.83;;;21.90;46.70;;;;;;5043150;28;20421;-71
2023/02/15 12:33:14;;;;;;;11.63;10.43;;;21.80;46.80;;;;;;5043258;28;20448;-73
2023/02/15 12:35:40;;;;;;;12.10;11.00;;;21.70;46.20;;;;;;5043895;28;20420;-73
2023/02/15 12:38:09;;;;;;;11.50;10.50;;;21.40;45.10;;;;;;5042786;28;20776;-71
2023/02/15 12:40:35;;;;;;;12.63;11.47;;;21.20;48.00;;;;;;5036237;28;20478;-71
2023/02/15 12:43:08;;;;;;;10.50;9.50;;;21.10;47.50;;;;;;5028452;28;20428;-71
2023/02/15 12:45:36;;;;;;;11.67;10.47;;;21.10;47.90;;;;;;5045896;28;20583;-71
2023/02/15 12:48:14;;;;;;;12.43;10.43;;;21.10;48.80;;;;;;5046035;28;20435;-72
2023/02/15 12:50:50;;;;;;;11.87;10.40;;;21.10;48.60;;;;;;5043136;28;20464;-71
2023/02/15 12:53:19;;;;;;;11.03;9.80;;;20.80;47.60;;;;;;5046038;28;20400;-70
2023/02/15 12:55:59;;;;;;;10.70;9.50;;;20.70;48.60;;;;;;5043122;28;20428;-71
2023/02/15 12:58:27;;;;;;;11.20;10.17;;;20.60;48.20;;;;;;5042154;28;20428;-71
2023/02/15 13:01:16;;;;;;;11.10;9.90;;;20.60;49.50;;;;;;5044635;28;20451;-71
2023/02/15 13:04:15;;;;;;;11.87;10.60;;;20.50;47.90;;;;;;5043009;28;20769;-71
2023/02/15 13:06:49;;;;;;;11.63;10.53;;;20.40;47.70;;;;;;5043134;28;20455;-71
2023/02/15 13:09:19;;;;;;;10.30;9.33;;;20.40;48.00;;;;;;5029782;28;20929;-70
2023/02/15 13:11:46;;;;;;;9.90;8.90;;;20.40;49.40;;;;;;5033384;28;20405;-71
2023/02/15 13:14:31;;;;;;;11.03;9.93;;;20.40;49.90;;;;;;5033945;28;20488;-76
2023/02/15 13:17:00;;;;;;;10.23;8.40;;;20.40;48.20;;;;;;5041857;28;20417;-70
2023/02/15 13:19:54;;;;;;;13.20;10.20;;;20.40;48.40;;;;;;5043433;28;20453;-71
2023/02/15 13:22:24;;;;;;;11.97;10.83;;;20.40;48.30;;;;;;5003464;28;20913;-72
2023/02/15 13:24:58;;;;;;;12.33;11.13;;;20.30;48.10;;;;;;5036392;28;20400;-72
2023/02/15 13:27:32;;;;;;;11.23;9.60;;;20.30;48.50;;;;;;5045155;28;20465;-71
2023/02/15 13:30:03;;;;;;;11.40;10.30;;;20.20;49.80;;;;;;5041508;28;20825;-76